sensor_id;sensor_type;location;lat;lon;timestamp;P1;durP1;ratioP1;P2;durP2;ratioP2
79578;SDS011;69051;52.406;5.280;2024-02-21T00:00:32;13.07;;;2.88;;
79578;SDS011;69051;52.406;5.280;2024-02-21T00:02:58;16.77;;;3.40;;
79578;SDS011;69051;52.406;5.280;2024-02-21T00:05:28;20.85;;;3.33;;
79578;SDS011;69051;52.406;5.280;2024-02-21T00:07:54;26.30;;;3.10;;
79578;SDS011;69051;52.406;5.280;2024-02-21T00:10:21;25.77;;;3.28;;
79578;SDS011;69051;52.406;5.280;2024-02-21T00:12:48;24.30;;;3.70;;
79578;SDS011;69051;52.406;5.280;2024-02-21T00:15:14;25.52;;;3.60;;
79578;SDS011;69051;52.406;5.280;2024-02-21T00:17:41;14.35;;;2.72;;
79578;SDS011;69051;52.406;5.280;2024-02-21T00:20:08;21.13;;;3.45;;
79578;SDS011;69051;52.406;5.280;2024-02-21T00:22:36;17.27;;;3.22;;
79578;SDS011;69051;52.406;5.280;2024-02-21T00:25:03;18.42;;;3.75;;
79578;SDS011;69051;52.406;5.280;2024-02-21T00:27:29;34.92;;;3.88;;
79578;SDS011;69051;52.406;5.280;2024-02-21T00:29:56;21.67;;;4.30;;
79578;SDS011;69051;52.406;5.280;2024-02-21T00:32:22;24.60;;;3.60;;
79578;SDS011;69051;52.406;5.280;2024-02-21T00:34:49;13.35;;;3.72;;
79578;SDS011;69051;52.406;5.280;2024-02-21T00:37:15;22.10;;;4.20;;
79578;SDS011;69051;52.406;5.280;2024-02-21T00:39:42;15.68;;;2.92;;
79578;SDS011;69051;52.406;5.280;2024-02-21T00:42:08;20.13;;;3.72;;
79578;SDS011;69051;52.406;5.280;2024-02-21T00:44:35;25.65;;;3.58;;
79578;SDS011;69051;52.406;5.280;2024-02-21T00:47:01;22.58;;;3.72;;
79578;SDS011;69051;52.406;5.280;2024-02-21T00:49:28;21.45;;;3.92;;
79578;SDS011;69051;52.406;5.280;2024-02-21T00:51:54;23.83;;;3.50;;
79578;SDS011;69051;52.406;5.280;2024-02-21T00:54:21;13.32;;;3.30;;
79578;SDS011;69051;52.406;5.280;2024-02-21T00:56:48;26.48;;;3.40;;
79578;SDS011;69051;52.406;5.280;2024-02-21T00:59:15;20.90;;;3.45;;
79578;SDS011;69051;52.406;5.280;2024-02-21T01:01:41;26.67;;;3.78;;
79578;SDS011;69051;52.406;5.280;2024-02-21T01:04:09;25.48;;;3.85;;
79578;SDS011;69051;52.406;5.280;2024-02-21T01:06:36;24.90;;;4.25;;
79578;SDS011;69051;52.406;5.280;2024-02-21T01:09:02;27.05;;;3.75;;
79578;SDS011;69051;52.406;5.280;2024-02-21T01:11:29;18.23;;;3.10;;
79578;SDS011;69051;52.406;5.280;2024-02-21T01:13:55;22.35;;;3.38;;
79578;SDS011;69051;52.406;5.280;2024-02-21T01:16:22;21.33;;;3.40;;
79578;SDS011;69051;52.406;5.280;2024-02-21T01:18:48;27.83;;;3.80;;
79578;SDS011;69051;52.406;5.280;2024-02-21T01:21:15;17.67;;;3.35;;
79578;SDS011;69051;52.406;5.280;2024-02-21T01:23:42;22.80;;;3.83;;
79578;SDS011;69051;52.406;5.280;2024-02-21T01:26:08;26.55;;;3.17;;
79578;SDS011;69051;52.406;5.280;2024-02-21T01:28:35;23.63;;;4.20;;
79578;SDS011;69051;52.406;5.280;2024-02-21T01:31:02;17.52;;;3.67;;
79578;SDS011;69051;52.406;5.280;2024-02-21T01:33:28;18.38;;;3.97;;
79578;SDS011;69051;52.406;5.280;2024-02-21T01:38:28;33.17;;;4.25;;
79578;SDS011;69051;52.406;5.280;2024-02-21T01:40:55;28.63;;;4.07;;
79578;SDS011;69051;52.406;5.280;2024-02-21T01:43:22;23.85;;;4.63;;
79578;SDS011;69051;52.406;5.280;2024-02-21T01:45:50;28.02;;;4.53;;
79578;SDS011;69051;52.406;5.280;2024-02-21T01:48:20;21.77;;;3.72;;
79578;SDS011;69051;52.406;5.280;2024-02-21T01:50:51;26.05;;;3.53;;
79578;SDS011;69051;52.406;5.280;2024-02-21T01:53:20;26.90;;;4.55;;
79578;SDS011;69051;52.406;5.280;2024-02-21T01:55:49;20.70;;;4.68;;
79578;SDS011;69051;52.406;5.280;2024-02-21T01:58:16;24.67;;;3.55;;
79578;SDS011;69051;52.406;5.280;2024-02-21T02:00:43;26.17;;;4.85;;
79578;SDS011;69051;52.406;5.280;2024-02-21T02:03:11;20.58;;;3.72;;
79578;SDS011;69051;52.406;5.280;2024-02-21T02:05:44;26.80;;;3.95;;
79578;SDS011;69051;52.406;5.280;2024-02-21T02:08:13;16.63;;;3.35;;
79578;SDS011;69051;52.406;5.280;2024-02-21T02:10:41;25.65;;;3.10;;
79578;SDS011;69051;52.406;5.280;2024-02-21T02:13:08;20.65;;;3.00;;
79578;SDS011;69051;52.406;5.280;2024-02-21T02:15:38;19.35;;;3.08;;
79578;SDS011;69051;52.406;5.280;2024-02-21T02:18:08;21.40;;;3.58;;
79578;SDS011;69051;52.406;5.280;2024-02-21T02:20:36;22.30;;;3.38;;
79578;SDS011;69051;52.406;5.280;2024-02-21T02:23:06;23.35;;;3.15;;
79578;SDS011;69051;52.406;5.280;2024-02-21T02:25:35;21.98;;;3.33;;
79578;SDS011;69051;52.406;5.280;2024-02-21T02:28:05;23.55;;;3.78;;
79578;SDS011;69051;52.406;5.280;2024-02-21T02:30:33;24.63;;;3.92;;
79578;SDS011;69051;52.406;5.280;2024-02-21T02:33:03;31.38;;;3.53;;
79578;SDS011;69051;52.406;5.280;2024-02-21T02:35:30;27.73;;;3.65;;
79578;SDS011;69051;52.406;5.280;2024-02-21T02:37:57;29.75;;;3.58;;
79578;SDS011;69051;52.406;5.280;2024-02-21T02:40:24;17.65;;;3.65;;
79578;SDS011;69051;52.406;5.280;2024-02-21T02:42:51;24.67;;;4.13;;
79578;SDS011;69051;52.406;5.280;2024-02-21T02:45:17;21.52;;;3.10;;
79578;SDS011;69051;52.406;5.280;2024-02-21T02:47:45;31.63;;;3.67;;
79578;SDS011;69051;52.406;5.280;2024-02-21T02:50:14;20.60;;;3.40;;
79578;SDS011;69051;52.406;5.280;2024-02-21T02:52:41;18.42;;;3.22;;
79578;SDS011;69051;52.406;5.280;2024-02-21T02:55:07;21.77;;;3.60;;
79578;SDS011;69051;52.406;5.280;2024-02-21T02:57:34;21.70;;;3.25;;
79578;SDS011;69051;52.406;5.280;2024-02-21T03:00:00;20.63;;;3.78;;
79578;SDS011;69051;52.406;5.280;2024-02-21T03:02:27;23.80;;;3.90;;
79578;SDS011;69051;52.406;5.280;2024-02-21T03:04:53;21.98;;;3.05;;
79578;SDS011;69051;52.406;5.280;2024-02-21T03:07:20;19.35;;;3.17;;
79578;SDS011;69051;52.406;5.280;2024-02-21T03:09:46;18.67;;;3.00;;
79578;SDS011;69051;52.406;5.280;2024-02-21T03:12:13;29.60;;;3.50;;
79578;SDS011;69051;52.406;5.280;2024-02-21T03:14:45;28.48;;;4.22;;
79578;SDS011;69051;52.406;5.280;2024-02-21T03:17:11;15.90;;;2.72;;
79578;SDS011;69051;52.406;5.280;2024-02-21T03:19:38;23.13;;;3.63;;
79578;SDS011;69051;52.406;5.280;2024-02-21T03:22:04;18.33;;;3.03;;
79578;SDS011;69051;52.406;5.280;2024-02-21T03:24:32;19.60;;;2.90;;
79578;SDS011;69051;52.406;5.280;2024-02-21T03:26:58;18.55;;;2.75;;
79578;SDS011;69051;52.406;5.280;2024-02-21T03:29:25;27.77;;;3.10;;
79578;SDS011;69051;52.406;5.280;2024-02-21T03:31:51;16.52;;;3.47;;
79578;SDS011;69051;52.406;5.280;2024-02-21T03:34:18;21.55;;;4.00;;
79578;SDS011;69051;52.406;5.280;2024-02-21T03:36:45;16.13;;;2.60;;
79578;SDS011;69051;52.406;5.280;2024-02-21T03:39:11;15.88;;;2.25;;
79578;SDS011;69051;52.406;5.280;2024-02-21T03:41:38;21.13;;;3.20;;
79578;SDS011;69051;52.406;5.280;2024-02-21T03:44:04;22.58;;;3.08;;
79578;SDS011;69051;52.406;5.280;2024-02-21T03:46:31;21.58;;;4.03;;
79578;SDS011;69051;52.406;5.280;2024-02-21T03:48:58;29.60;;;4.03;;
79578;SDS011;69051;52.406;5.280;2024-02-21T03:51:24;19.17;;;3.38;;
79578;SDS011;69051;52.406;5.280;2024-02-21T03:53:51;23.70;;;3.72;;
79578;SDS011;69051;52.406;5.280;2024-02-21T03:56:17;24.73;;;3.70;;
79578;SDS011;69051;52.406;5.280;2024-02-21T03:58:44;29.20;;;5.03;;
79578;SDS011;69051;52.406;5.280;2024-02-21T04:01:10;15.73;;;3.13;;
79578;SDS011;69051;52.406;5.280;2024-02-21T04:03:37;19.73;;;3.30;;
79578;SDS011;69051;52.406;5.280;2024-02-21T04:06:03;18.67;;;3.13;;
79578;SDS011;69051;52.406;5.280;2024-02-21T04:08:30;26.13;;;3.92;;
79578;SDS011;69051;52.406;5.280;2024-02-21T04:10:56;24.48;;;3.63;;
79578;SDS011;69051;52.406;5.280;2024-02-21T04:13:23;15.93;;;3.40;;
79578;SDS011;69051;52.406;5.280;2024-02-21T04:15:50;17.00;;;3.20;;
79578;SDS011;69051;52.406;5.280;2024-02-21T04:18:16;26.98;;;3.38;;
79578;SDS011;69051;52.406;5.280;2024-02-21T04:20:42;30.73;;;3.88;;
79578;SDS011;69051;52.406;5.280;2024-02-21T04:23:09;20.70;;;3.58;;
79578;SDS011;69051;52.406;5.280;2024-02-21T04:25:36;27.23;;;4.20;;
79578;SDS011;69051;52.406;5.280;2024-02-21T04:28:02;22.63;;;4.22;;
79578;SDS011;69051;52.406;5.280;2024-02-21T04:30:29;21.73;;;3.90;;
79578;SDS011;69051;52.406;5.280;2024-02-21T04:32:56;18.27;;;3.78;;
79578;SDS011;69051;52.406;5.280;2024-02-21T04:35:22;25.20;;;4.55;;
79578;SDS011;69051;52.406;5.280;2024-02-21T04:37:49;24.98;;;4.35;;
79578;SDS011;69051;52.406;5.280;2024-02-21T04:40:16;18.98;;;4.63;;
79578;SDS011;69051;52.406;5.280;2024-02-21T04:42:43;22.40;;;4.47;;
79578;SDS011;69051;52.406;5.280;2024-02-21T04:45:10;19.50;;;4.15;;
79578;SDS011;69051;52.406;5.280;2024-02-21T04:47:36;29.00;;;4.18;;
79578;SDS011;69051;52.406;5.280;2024-02-21T04:50:03;31.40;;;4.70;;
79578;SDS011;69051;52.406;5.280;2024-02-21T04:52:30;34.85;;;5.03;;
79578;SDS011;69051;52.406;5.280;2024-02-21T04:54:56;22.67;;;4.35;;
79578;SDS011;69051;52.406;5.280;2024-02-21T04:57:23;23.30;;;5.35;;
79578;SDS011;69051;52.406;5.280;2024-02-21T04:59:49;17.25;;;4.38;;
79578;SDS011;69051;52.406;5.280;2024-02-21T05:02:16;24.55;;;5.05;;
79578;SDS011;69051;52.406;5.280;2024-02-21T05:04:42;20.55;;;5.53;;
79578;SDS011;69051;52.406;5.280;2024-02-21T05:07:10;23.63;;;4.90;;
79578;SDS011;69051;52.406;5.280;2024-02-21T05:09:38;23.00;;;5.60;;
79578;SDS011;69051;52.406;5.280;2024-02-21T05:12:04;24.95;;;4.40;;
79578;SDS011;69051;52.406;5.280;2024-02-21T05:14:31;20.67;;;5.15;;
79578;SDS011;69051;52.406;5.280;2024-02-21T05:16:57;22.75;;;5.35;;
79578;SDS011;69051;52.406;5.280;2024-02-21T05:19:24;20.90;;;4.40;;
79578;SDS011;69051;52.406;5.280;2024-02-21T05:21:51;22.15;;;5.78;;
79578;SDS011;69051;52.406;5.280;2024-02-21T05:24:17;20.23;;;5.68;;
79578;SDS011;69051;52.406;5.280;2024-02-21T05:26:44;24.02;;;5.75;;
79578;SDS011;69051;52.406;5.280;2024-02-21T05:29:10;19.02;;;5.30;;
79578;SDS011;69051;52.406;5.280;2024-02-21T05:34:19;21.90;;;6.18;;
79578;SDS011;69051;52.406;5.280;2024-02-21T05:36:46;23.02;;;5.70;;
79578;SDS011;69051;52.406;5.280;2024-02-21T05:39:15;26.48;;;6.60;;
79578;SDS011;69051;52.406;5.280;2024-02-21T05:41:45;23.35;;;6.65;;
79578;SDS011;69051;52.406;5.280;2024-02-21T05:44:11;20.25;;;5.68;;
79578;SDS011;69051;52.406;5.280;2024-02-21T05:46:38;24.45;;;7.78;;
79578;SDS011;69051;52.406;5.280;2024-02-21T05:49:05;28.30;;;8.80;;
79578;SDS011;69051;52.406;5.280;2024-02-21T05:51:33;25.65;;;7.88;;
79578;SDS011;69051;52.406;5.280;2024-02-21T05:54:00;22.17;;;8.40;;
79578;SDS011;69051;52.406;5.280;2024-02-21T05:56:27;19.23;;;8.98;;
79578;SDS011;69051;52.406;5.280;2024-02-21T05:58:54;27.17;;;10.20;;
79578;SDS011;69051;52.406;5.280;2024-02-21T06:01:21;20.10;;;8.85;;
79578;SDS011;69051;52.406;5.280;2024-02-21T06:03:48;30.90;;;12.25;;
79578;SDS011;69051;52.406;5.280;2024-02-21T06:06:14;31.85;;;8.73;;
79578;SDS011;69051;52.406;5.280;2024-02-21T06:08:41;27.05;;;8.95;;
79578;SDS011;69051;52.406;5.280;2024-02-21T06:11:07;26.08;;;9.65;;
79578;SDS011;69051;52.406;5.280;2024-02-21T06:13:37;23.63;;;10.10;;
79578;SDS011;69051;52.406;5.280;2024-02-21T06:16:06;23.92;;;9.68;;
79578;SDS011;69051;52.406;5.280;2024-02-21T06:18:34;22.02;;;9.02;;
79578;SDS011;69051;52.406;5.280;2024-02-21T06:21:01;27.85;;;8.73;;
79578;SDS011;69051;52.406;5.280;2024-02-21T06:23:28;23.05;;;9.05;;
79578;SDS011;69051;52.406;5.280;2024-02-21T06:25:54;22.20;;;8.95;;
79578;SDS011;69051;52.406;5.280;2024-02-21T06:28:21;29.83;;;9.10;;
79578;SDS011;69051;52.406;5.280;2024-02-21T06:30:47;25.13;;;10.27;;
79578;SDS011;69051;52.406;5.280;2024-02-21T06:33:14;23.33;;;8.95;;
79578;SDS011;69051;52.406;5.280;2024-02-21T06:35:40;21.85;;;9.05;;
79578;SDS011;69051;52.406;5.280;2024-02-21T06:38:08;23.95;;;9.13;;
79578;SDS011;69051;52.406;5.280;2024-02-21T06:40:35;23.35;;;9.73;;
79578;SDS011;69051;52.406;5.280;2024-02-21T06:43:05;21.95;;;9.23;;
79578;SDS011;69051;52.406;5.280;2024-02-21T06:45:32;22.75;;;10.20;;
79578;SDS011;69051;52.406;5.280;2024-02-21T06:47:58;21.90;;;9.40;;
79578;SDS011;69051;52.406;5.280;2024-02-21T06:50:25;26.75;;;9.90;;
79578;SDS011;69051;52.406;5.280;2024-02-21T06:52:52;26.85;;;9.82;;
79578;SDS011;69051;52.406;5.280;2024-02-21T06:55:18;22.65;;;8.73;;
79578;SDS011;69051;52.406;5.280;2024-02-21T06:57:45;23.83;;;9.02;;
79578;SDS011;69051;52.406;5.280;2024-02-21T07:00:12;28.30;;;9.93;;
79578;SDS011;69051;52.406;5.280;2024-02-21T07:02:39;23.08;;;9.73;;
79578;SDS011;69051;52.406;5.280;2024-02-21T07:05:05;24.17;;;9.57;;
79578;SDS011;69051;52.406;5.280;2024-02-21T07:07:32;26.25;;;11.20;;
79578;SDS011;69051;52.406;5.280;2024-02-21T07:10:01;25.23;;;11.15;;
79578;SDS011;69051;52.406;5.280;2024-02-21T07:12:28;26.20;;;12.00;;
79578;SDS011;69051;52.406;5.280;2024-02-21T07:14:54;20.40;;;9.70;;
79578;SDS011;69051;52.406;5.280;2024-02-21T07:17:20;26.02;;;10.45;;
79578;SDS011;69051;52.406;5.280;2024-02-21T07:19:47;25.00;;;10.65;;
79578;SDS011;69051;52.406;5.280;2024-02-21T07:22:13;23.92;;;10.38;;
79578;SDS011;69051;52.406;5.280;2024-02-21T07:24:40;28.73;;;11.38;;
79578;SDS011;69051;52.406;5.280;2024-02-21T07:27:06;34.60;;;14.68;;
79578;SDS011;69051;52.406;5.280;2024-02-21T07:29:33;31.30;;;13.05;;
79578;SDS011;69051;52.406;5.280;2024-02-21T07:31:59;37.92;;;16.05;;
79578;SDS011;69051;52.406;5.280;2024-02-21T07:34:26;31.83;;;11.52;;
79578;SDS011;69051;52.406;5.280;2024-02-21T07:36:53;29.38;;;12.25;;
79578;SDS011;69051;52.406;5.280;2024-02-21T07:39:19;25.88;;;10.63;;
79578;SDS011;69051;52.406;5.280;2024-02-21T07:41:46;25.55;;;10.23;;
79578;SDS011;69051;52.406;5.280;2024-02-21T07:44:14;32.63;;;10.25;;
79578;SDS011;69051;52.406;5.280;2024-02-21T07:46:41;26.52;;;12.23;;
79578;SDS011;69051;52.406;5.280;2024-02-21T07:49:07;22.83;;;11.02;;
79578;SDS011;69051;52.406;5.280;2024-02-21T07:51:34;24.40;;;11.02;;
79578;SDS011;69051;52.406;5.280;2024-02-21T07:54:02;23.92;;;12.30;;
79578;SDS011;69051;52.406;5.280;2024-02-21T07:56:30;30.25;;;11.35;;
79578;SDS011;69051;52.406;5.280;2024-02-21T07:58:57;22.05;;;10.80;;
79578;SDS011;69051;52.406;5.280;2024-02-21T08:01:24;24.90;;;10.68;;
79578;SDS011;69051;52.406;5.280;2024-02-21T08:03:50;31.10;;;12.60;;
79578;SDS011;69051;52.406;5.280;2024-02-21T08:06:17;27.85;;;11.23;;
79578;SDS011;69051;52.406;5.280;2024-02-21T08:08:44;27.92;;;10.68;;
79578;SDS011;69051;52.406;5.280;2024-02-21T08:11:10;25.25;;;10.75;;
79578;SDS011;69051;52.406;5.280;2024-02-21T08:13:37;24.98;;;10.57;;
79578;SDS011;69051;52.406;5.280;2024-02-21T08:16:03;35.70;;;12.60;;
79578;SDS011;69051;52.406;5.280;2024-02-21T08:18:30;30.65;;;12.25;;
79578;SDS011;69051;52.406;5.280;2024-02-21T08:20:57;30.35;;;11.77;;
79578;SDS011;69051;52.406;5.280;2024-02-21T08:23:23;26.98;;;11.02;;
79578;SDS011;69051;52.406;5.280;2024-02-21T08:25:50;28.88;;;11.23;;
79578;SDS011;69051;52.406;5.280;2024-02-21T08:28:17;28.60;;;12.10;;
79578;SDS011;69051;52.406;5.280;2024-02-21T08:30:43;24.73;;;10.48;;
79578;SDS011;69051;52.406;5.280;2024-02-21T08:33:15;30.35;;;12.50;;
79578;SDS011;69051;52.406;5.280;2024-02-21T08:35:46;26.30;;;10.43;;
79578;SDS011;69051;52.406;5.280;2024-02-21T08:38:12;22.27;;;8.90;;
79578;SDS011;69051;52.406;5.280;2024-02-21T08:40:39;25.08;;;10.10;;
79578;SDS011;69051;52.406;5.280;2024-02-21T08:43:05;33.95;;;14.43;;
79578;SDS011;69051;52.406;5.280;2024-02-21T08:45:32;27.08;;;9.85;;
79578;SDS011;69051;52.406;5.280;2024-02-21T08:47:58;35.20;;;12.00;;
79578;SDS011;69051;52.406;5.280;2024-02-21T08:50:25;27.13;;;13.05;;
79578;SDS011;69051;52.406;5.280;2024-02-21T08:52:55;30.13;;;10.10;;
79578;SDS011;69051;52.406;5.280;2024-02-21T08:55:21;26.48;;;10.80;;
79578;SDS011;69051;52.406;5.280;2024-02-21T08:57:48;19.73;;;10.13;;
79578;SDS011;69051;52.406;5.280;2024-02-21T09:00:15;27.20;;;12.48;;
79578;SDS011;69051;52.406;5.280;2024-02-21T09:02:42;31.20;;;12.45;;
79578;SDS011;69051;52.406;5.280;2024-02-21T09:05:11;33.15;;;11.32;;
79578;SDS011;69051;52.406;5.280;2024-02-21T09:07:38;25.83;;;12.15;;
79578;SDS011;69051;52.406;5.280;2024-02-21T09:10:05;27.40;;;10.88;;
79578;SDS011;69051;52.406;5.280;2024-02-21T09:12:31;32.65;;;11.95;;
79578;SDS011;69051;52.406;5.280;2024-02-21T09:14:58;27.55;;;12.25;;
79578;SDS011;69051;52.406;5.280;2024-02-21T09:17:25;31.60;;;13.55;;
79578;SDS011;69051;52.406;5.280;2024-02-21T09:19:52;35.17;;;13.20;;
79578;SDS011;69051;52.406;5.280;2024-02-21T09:22:21;25.20;;;12.43;;
79578;SDS011;69051;52.406;5.280;2024-02-21T09:24:47;30.35;;;13.38;;
79578;SDS011;69051;52.406;5.280;2024-02-21T09:27:15;31.95;;;12.93;;
79578;SDS011;69051;52.406;5.280;2024-02-21T09:29:42;28.58;;;12.02;;
79578;SDS011;69051;52.406;5.280;2024-02-21T09:32:08;27.63;;;12.13;;
79578;SDS011;69051;52.406;5.280;2024-02-21T09:34:35;32.75;;;11.52;;
79578;SDS011;69051;52.406;5.280;2024-02-21T09:37:02;33.05;;;13.07;;
79578;SDS011;69051;52.406;5.280;2024-02-21T09:39:28;30.15;;;12.50;;
79578;SDS011;69051;52.406;5.280;2024-02-21T09:41:58;26.00;;;13.27;;
79578;SDS011;69051;52.406;5.280;2024-02-21T09:44:27;31.23;;;13.20;;
79578;SDS011;69051;52.406;5.280;2024-02-21T09:47:02;29.63;;;15.68;;
79578;SDS011;69051;52.406;5.280;2024-02-21T09:49:34;33.13;;;14.38;;
79578;SDS011;69051;52.406;5.280;2024-02-21T09:52:04;31.17;;;16.40;;
79578;SDS011;69051;52.406;5.280;2024-02-21T09:54:32;33.25;;;13.38;;
79578;SDS011;69051;52.406;5.280;2024-02-21T09:57:03;34.50;;;14.15;;
79578;SDS011;69051;52.406;5.280;2024-02-21T09:59:30;30.52;;;14.05;;
79578;SDS011;69051;52.406;5.280;2024-02-21T10:01:59;29.25;;;13.20;;
79578;SDS011;69051;52.406;5.280;2024-02-21T10:04:27;29.60;;;13.73;;
79578;SDS011;69051;52.406;5.280;2024-02-21T10:06:53;30.80;;;12.60;;
79578;SDS011;69051;52.406;5.280;2024-02-21T10:09:21;34.78;;;13.48;;
79578;SDS011;69051;52.406;5.280;2024-02-21T10:11:54;25.52;;;11.90;;
79578;SDS011;69051;52.406;5.280;2024-02-21T10:14:21;31.92;;;14.82;;
79578;SDS011;69051;52.406;5.280;2024-02-21T10:16:48;24.60;;;12.25;;
79578;SDS011;69051;52.406;5.280;2024-02-21T10:19:19;27.13;;;13.65;;
79578;SDS011;69051;52.406;5.280;2024-02-21T10:22:02;29.88;;;11.93;;
79578;SDS011;69051;52.406;5.280;2024-02-21T10:24:31;31.40;;;12.63;;
79578;SDS011;69051;52.406;5.280;2024-02-21T10:27:02;26.13;;;11.60;;
79578;SDS011;69051;52.406;5.280;2024-02-21T10:29:30;21.42;;;10.80;;
79578;SDS011;69051;52.406;5.280;2024-02-21T10:32:10;23.33;;;12.48;;
79578;SDS011;69051;52.406;5.280;2024-02-21T10:35:01;25.90;;;11.45;;
79578;SDS011;69051;52.406;5.280;2024-02-21T10:37:30;22.10;;;10.13;;
79578;SDS011;69051;52.406;5.280;2024-02-21T10:39:58;20.33;;;10.35;;
79578;SDS011;69051;52.406;5.280;2024-02-21T10:42:26;17.58;;;7.40;;
79578;SDS011;69051;52.406;5.280;2024-02-21T10:44:57;24.30;;;9.15;;
79578;SDS011;69051;52.406;5.280;2024-02-21T10:47:27;20.98;;;8.43;;
79578;SDS011;69051;52.406;5.280;2024-02-21T10:49:57;17.80;;;8.10;;
79578;SDS011;69051;52.406;5.280;2024-02-21T10:52:35;16.35;;;7.82;;
79578;SDS011;69051;52.406;5.280;2024-02-21T10:55:17;20.98;;;7.88;;
79578;SDS011;69051;52.406;5.280;2024-02-21T10:57:47;21.67;;;8.90;;
79578;SDS011;69051;52.406;5.280;2024-02-21T11:00:14;18.58;;;7.30;;
79578;SDS011;69051;52.406;5.280;2024-02-21T11:02:44;19.83;;;8.63;;
79578;SDS011;69051;52.406;5.280;2024-02-21T11:05:12;18.10;;;9.88;;
79578;SDS011;69051;52.406;5.280;2024-02-21T11:07:39;14.82;;;6.97;;
79578;SDS011;69051;52.406;5.280;2024-02-21T11:10:19;16.80;;;7.25;;
79578;SDS011;69051;52.406;5.280;2024-02-21T11:12:47;17.08;;;6.45;;
79578;SDS011;69051;52.406;5.280;2024-02-21T11:15:14;20.95;;;8.55;;
79578;SDS011;69051;52.406;5.280;2024-02-21T11:17:41;17.65;;;7.68;;
79578;SDS011;69051;52.406;5.280;2024-02-21T11:20:15;17.23;;;6.63;;
79578;SDS011;69051;52.406;5.280;2024-02-21T11:22:42;19.25;;;8.95;;
79578;SDS011;69051;52.406;5.280;2024-02-21T11:25:10;14.70;;;6.15;;
79578;SDS011;69051;52.406;5.280;2024-02-21T11:27:38;14.60;;;6.60;;
79578;SDS011;69051;52.406;5.280;2024-02-21T11:30:05;16.30;;;6.43;;
79578;SDS011;69051;52.406;5.280;2024-02-21T11:32:32;12.88;;;6.13;;
79578;SDS011;69051;52.406;5.280;2024-02-21T11:34:59;15.05;;;6.45;;
79578;SDS011;69051;52.406;5.280;2024-02-21T11:37:29;15.05;;;6.07;;
79578;SDS011;69051;52.406;5.280;2024-02-21T11:39:57;10.05;;;5.45;;
79578;SDS011;69051;52.406;5.280;2024-02-21T11:42:27;11.82;;;6.25;;
79578;SDS011;69051;52.406;5.280;2024-02-21T11:44:55;14.88;;;6.35;;
79578;SDS011;69051;52.406;5.280;2024-02-21T11:47:23;12.90;;;6.28;;
79578;SDS011;69051;52.406;5.280;2024-02-21T11:49:50;13.20;;;6.00;;
79578;SDS011;69051;52.406;5.280;2024-02-21T11:52:23;11.90;;;5.72;;
79578;SDS011;69051;52.406;5.280;2024-02-21T11:54:52;12.77;;;6.72;;
79578;SDS011;69051;52.406;5.280;2024-02-21T11:57:19;12.32;;;6.53;;
79578;SDS011;69051;52.406;5.280;2024-02-21T11:59:46;13.07;;;5.95;;
79578;SDS011;69051;52.406;5.280;2024-02-21T12:02:13;13.23;;;6.70;;
79578;SDS011;69051;52.406;5.280;2024-02-21T12:04:41;12.30;;;6.65;;
79578;SDS011;69051;52.406;5.280;2024-02-21T12:07:08;15.90;;;7.25;;
79578;SDS011;69051;52.406;5.280;2024-02-21T12:09:35;15.88;;;7.35;;
79578;SDS011;69051;52.406;5.280;2024-02-21T12:12:02;16.75;;;7.13;;
79578;SDS011;69051;52.406;5.280;2024-02-21T12:14:30;17.63;;;7.30;;
79578;SDS011;69051;52.406;5.280;2024-02-21T12:17:01;15.73;;;7.47;;
79578;SDS011;69051;52.406;5.280;2024-02-21T12:19:30;15.65;;;7.88;;
79578;SDS011;69051;52.406;5.280;2024-02-21T12:22:01;12.00;;;6.85;;
79578;SDS011;69051;52.406;5.280;2024-02-21T12:24:32;12.15;;;6.00;;
79578;SDS011;69051;52.406;5.280;2024-02-21T12:26:58;15.77;;;6.60;;
79578;SDS011;69051;52.406;5.280;2024-02-21T12:29:26;14.38;;;6.57;;
79578;SDS011;69051;52.406;5.280;2024-02-21T12:31:53;15.02;;;5.85;;
79578;SDS011;69051;52.406;5.280;2024-02-21T12:34:21;15.65;;;6.45;;
79578;SDS011;69051;52.406;5.280;2024-02-21T12:37:04;15.23;;;7.18;;
79578;SDS011;69051;52.406;5.280;2024-02-21T12:39:30;21.35;;;6.55;;
79578;SDS011;69051;52.406;5.280;2024-02-21T12:41:58;14.50;;;6.97;;
79578;SDS011;69051;52.406;5.280;2024-02-21T12:44:24;13.40;;;6.10;;
79578;SDS011;69051;52.406;5.280;2024-02-21T12:46:51;13.95;;;6.75;;
79578;SDS011;69051;52.406;5.280;2024-02-21T12:49:21;13.10;;;6.50;;
79578;SDS011;69051;52.406;5.280;2024-02-21T12:51:47;13.77;;;7.03;;
79578;SDS011;69051;52.406;5.280;2024-02-21T12:54:14;14.65;;;6.60;;
79578;SDS011;69051;52.406;5.280;2024-02-21T12:56:40;13.75;;;6.93;;
79578;SDS011;69051;52.406;5.280;2024-02-21T12:59:07;13.88;;;6.32;;
79578;SDS011;69051;52.406;5.280;2024-02-21T13:01:35;14.82;;;6.88;;
79578;SDS011;69051;52.406;5.280;2024-02-21T13:04:04;17.40;;;8.57;;
79578;SDS011;69051;52.406;5.280;2024-02-21T13:06:30;13.48;;;6.55;;
79578;SDS011;69051;52.406;5.280;2024-02-21T13:08:57;12.55;;;7.82;;
79578;SDS011;69051;52.406;5.280;2024-02-21T13:11:23;13.05;;;6.80;;
79578;SDS011;69051;52.406;5.280;2024-02-21T13:13:53;12.52;;;6.45;;
79578;SDS011;69051;52.406;5.280;2024-02-21T13:16:19;15.38;;;6.78;;
79578;SDS011;69051;52.406;5.280;2024-02-21T13:18:46;16.40;;;7.13;;
79578;SDS011;69051;52.406;5.280;2024-02-21T13:21:13;15.30;;;6.82;;
79578;SDS011;69051;52.406;5.280;2024-02-21T13:23:40;24.38;;;7.18;;
79578;SDS011;69051;52.406;5.280;2024-02-21T13:26:06;14.63;;;6.63;;
79578;SDS011;69051;52.406;5.280;2024-02-21T13:28:33;13.32;;;6.85;;
79578;SDS011;69051;52.406;5.280;2024-02-21T13:31:00;16.45;;;7.13;;
79578;SDS011;69051;52.406;5.280;2024-02-21T13:33:26;14.02;;;6.78;;
79578;SDS011;69051;52.406;5.280;2024-02-21T13:35:55;15.38;;;6.38;;
79578;SDS011;69051;52.406;5.280;2024-02-21T13:38:21;12.75;;;6.18;;
79578;SDS011;69051;52.406;5.280;2024-02-21T13:40:48;15.05;;;6.90;;
79578;SDS011;69051;52.406;5.280;2024-02-21T13:43:14;14.50;;;7.07;;
79578;SDS011;69051;52.406;5.280;2024-02-21T13:45:41;15.73;;;7.22;;
79578;SDS011;69051;52.406;5.280;2024-02-21T13:48:22;14.35;;;7.43;;
79578;SDS011;69051;52.406;5.280;2024-02-21T13:50:48;12.43;;;6.90;;
79578;SDS011;69051;52.406;5.280;2024-02-21T13:53:15;12.23;;;6.65;;
79578;SDS011;69051;52.406;5.280;2024-02-21T13:55:44;13.98;;;6.50;;
79578;SDS011;69051;52.406;5.280;2024-02-21T13:58:11;19.83;;;7.20;;
79578;SDS011;69051;52.406;5.280;2024-02-21T14:00:38;14.10;;;7.38;;
79578;SDS011;69051;52.406;5.280;2024-02-21T14:03:04;14.80;;;6.15;;
79578;SDS011;69051;52.406;5.280;2024-02-21T14:05:31;13.30;;;5.28;;
79578;SDS011;69051;52.406;5.280;2024-02-21T14:07:58;13.23;;;6.68;;
79578;SDS011;69051;52.406;5.280;2024-02-21T14:10:24;14.88;;;6.28;;
79578;SDS011;69051;52.406;5.280;2024-02-21T14:12:51;12.30;;;6.07;;
79578;SDS011;69051;52.406;5.280;2024-02-21T14:15:17;12.68;;;6.25;;
79578;SDS011;69051;52.406;5.280;2024-02-21T14:17:44;14.18;;;6.95;;
79578;SDS011;69051;52.406;5.280;2024-02-21T14:20:10;16.70;;;6.03;;
79578;SDS011;69051;52.406;5.280;2024-02-21T14:22:43;14.65;;;6.97;;
79578;SDS011;69051;52.406;5.280;2024-02-21T14:25:10;12.07;;;6.18;;
79578;SDS011;69051;52.406;5.280;2024-02-21T14:27:36;15.90;;;6.25;;
79578;SDS011;69051;52.406;5.280;2024-02-21T14:30:03;14.52;;;6.28;;
79578;SDS011;69051;52.406;5.280;2024-02-21T14:32:30;17.30;;;6.18;;
79578;SDS011;69051;52.406;5.280;2024-02-21T14:34:56;13.73;;;6.18;;
79578;SDS011;69051;52.406;5.280;2024-02-21T14:37:25;17.20;;;6.13;;